Integrity — WDF4881 — position and weather

sailwx.info

Track history (hours):
 
Tides and Currents Weather Stations Pressure Air Temp Water Temp Dewpoint Dewpoint Depression Visibility Wind Speed Wind Dir Waves Ship Positions

Integrity

Owner: Canal Barge Company, Inc., Belle Chasse, LA. More information available from US FCC via Universal Licensing System and Coast Guard Vessel Documentation Center.

Last reported at 2014-Nov-24 19:05 UTC. Time now 2014-Nov-24 21:45 UTC.
Position N 29°40' W 091°26'.

Length 19 m; draft 2.8 m.

Type: Towing. MMSI: 367456830.

Date/timePositionNaut miles runAvg speedWind from/ knotsBaromVisibWave heightAir tempDewpointWater temp
2014-Nov-24 19:05N 29°40' W 091°26'3 5.6
2014-Nov-24 18:31N 29°39' W 091°23'6 5.9
2014-Nov-24 17:34N 29°39' W 091°16'5 5.4
2014-Nov-24 16:33N 29°41' W 091°10'1 1.1
2014-Nov-24 15:34N 29°41' W 091°09'0 0.0
2014-Nov-24 14:33N 29°41' W 091°09'4 3.9
2014-Nov-24 13:34N 29°38' W 091°06'5 4.8
2014-Nov-24 12:31N 29°37' W 091°00'5 5.2
2014-Nov-24 11:31N 29°34' W 090°56'18 2.5
2014-Nov-24 04:11N 29°35' W 090°35'3 4.6
2014-Nov-24 03:27N 29°34' W 090°31'28 4.0
2014-Nov-23 20:29N 29°49' W 090°04'8 3.4
2014-Nov-23 18:03N 29°55' W 089°58'1 1.3
2014-Nov-23 17:31N 29°55' W 089°57'0 0.0
2014-Nov-23 16:32N 29°55' W 089°57'0 0.0
2014-Nov-23 15:33N 29°55' W 089°57'5 4.6
2014-Nov-23 14:29N 29°57' W 090°02'3 3.1
2014-Nov-23 13:26N 29°55' W 090°05'0 0.0
2014-Nov-22 15:07N 29°55' W 090°05'  
2014-Nov-19 06:17N 29°59' W 090°48'24 0.5
2014-Nov-17 05:04N 29°59' W 091°16'6 3.8
2014-Nov-17 03:26N 29°53' W 091°13'4 4.1
2014-Nov-17 02:25N 29°49' W 091°10'3 3.4
2014-Nov-17 01:33N 29°46' W 091°11'3 3.1
2014-Nov-17 00:34N 29°43' W 091°12'5 4.9
2014-Nov-16 23:34N 29°39' W 091°15'1 0.7
2014-Nov-16 22:34N 29°39' W 091°16'0 0.0
2014-Nov-16 21:33N 29°39' W 091°16'0 0.0
2014-Nov-16 20:33N 29°39' W 091°16'0 0.0
2014-Nov-16 19:33N 29°39' W 091°16'0 0.1
2014-Nov-16 18:34N 29°39' W 091°16'0 0.1
2014-Nov-16 17:34N 29°39' W 091°16'  
Track history (hours):
 
Tides and Currents Weather Stations Pressure Air Temp Water Temp Dewpoint Dewpoint Depression Visibility Wind Speed Wind Dir Waves Ship Positions

Integrity

Owner: Canal Barge Company, Inc., Belle Chasse, LA. More information available from US FCC via Universal Licensing System and Coast Guard Vessel Documentation Center.

Last reported at 2014-Nov-24 19:05 UTC. Time now 2014-Nov-24 21:45 UTC.
Position N 29°40' W 091°26'.

Length 19 m; draft 2.8 m.

Type: Towing. MMSI: 367456830.

Date/timePositionNaut miles runAvg speedWind from/ knotsBaromVisibWave heightAir tempDewpointWater temp
2014-Nov-24 19:05N 29°40' W 091°26'3 5.6
2014-Nov-24 18:31N 29°39' W 091°23'6 5.9
2014-Nov-24 17:34N 29°39' W 091°16'5 5.4
2014-Nov-24 16:33N 29°41' W 091°10'1 1.1
2014-Nov-24 15:34N 29°41' W 091°09'0 0.0
2014-Nov-24 14:33N 29°41' W 091°09'4 3.9
2014-Nov-24 13:34N 29°38' W 091°06'5 4.8
2014-Nov-24 12:31N 29°37' W 091°00'5 5.2
2014-Nov-24 11:31N 29°34' W 090°56'18 2.5
2014-Nov-24 04:11N 29°35' W 090°35'3 4.6
2014-Nov-24 03:27N 29°34' W 090°31'28 4.0
2014-Nov-23 20:29N 29°49' W 090°04'8 3.4
2014-Nov-23 18:03N 29°55' W 089°58'1 1.3
2014-Nov-23 17:31N 29°55' W 089°57'0 0.0
2014-Nov-23 16:32N 29°55' W 089°57'0 0.0
2014-Nov-23 15:33N 29°55' W 089°57'5 4.6
2014-Nov-23 14:29N 29°57' W 090°02'3 3.1
2014-Nov-23 13:26N 29°55' W 090°05'0 0.0
2014-Nov-22 15:07N 29°55' W 090°05'  
2014-Nov-19 06:17N 29°59' W 090°48'24 0.5
2014-Nov-17 05:04N 29°59' W 091°16'6 3.8
2014-Nov-17 03:26N 29°53' W 091°13'4 4.1
2014-Nov-17 02:25N 29°49' W 091°10'3 3.4
2014-Nov-17 01:33N 29°46' W 091°11'3 3.1
2014-Nov-17 00:34N 29°43' W 091°12'5 4.9
2014-Nov-16 23:34N 29°39' W 091°15'1 0.7
2014-Nov-16 22:34N 29°39' W 091°16'0 0.0
2014-Nov-16 21:33N 29°39' W 091°16'0 0.0
2014-Nov-16 20:33N 29°39' W 091°16'0 0.0
2014-Nov-16 19:33N 29°39' W 091°16'0 0.1
2014-Nov-16 18:34N 29°39' W 091°16'0 0.1
2014-Nov-16 17:34N 29°39' W 091°16'  

Dump ship's entire track history